METAR Data
IDs: Format: Raw Decoded Include TAF

Data at: 2119 UTC 18 Sep 2018

KSPI 182052Z 34006KT 10SM CLR 34/19 A2990 RMK AO2 SLP120 T03440189 56012
KSPI 181952Z 00000KT 10SM BKN085 33/19 A2992 RMK AO2 SLP125 T03280189
KSPI 181852Z VRB06KT 10SM CLR 33/19 A2992 RMK AO2 SLP127 T03280189
KSPI 181752Z 20005KT 10SM CLR 32/19 A2994 RMK AO2 SLP132 T03170194 10322 20178 58012
KSPI 181652Z 14006KT 10SM CLR 31/20 A2996 RMK AO2 SLP139 T03110200
KSPI 181552Z VRB03KT 10SM SCT060 29/20 A2997 RMK AO2 SLP145 T02940200
KSPI 181452Z 13003KT 10SM CLR 27/21 A2997 RMK AO2 SLP145 T02670206 58000
KSPI 181352Z 00000KT 10SM CLR 24/21 A2998 RMK AO2 SLP148 T02440206
KSPI 181252Z 00000KT 10SM CLR 21/20 A2999 RMK AO2 SLP150 T02110200
KSPI 181152Z 00000KT 8SM CLR 18/18 A2997 RMK AO2 SLP145 T01780178 10200 20178 53007
KSPI 181052Z 24003KT 10SM CLR 18/18 A2997 RMK AO2 SLP142 T01830183
KSPI 180952Z AUTO 00000KT 10SM CLR 18/18 A2996 RMK AO2 SLP140 T01830183
KSPI 180852Z AUTO 00000KT 10SM CLR 18/18 A2995 RMK AO2 SLP138 T01830183 58000
KSPI 180752Z AUTO 22003KT 10SM CLR 19/19 A2995 RMK AO2 SLP138 T01890189
KSPI 180652Z AUTO 24003KT 10SM CLR 19/19 A2996 RMK AO2 SLP138 T01940189
KSPI 180552Z AUTO 26003KT 10SM CLR 19/19 A2996 RMK AO2 SLP138 T01940189 10283 20194 403440183 50003
KSPI 180452Z AUTO 00000KT 10SM CLR 20/19 A2996 RMK AO2 SLP138 T02000194
KSPI 180352Z AUTO 00000KT 10SM CLR 21/19 A2995 RMK AO2 SLP136 T02060194 TSNO
KSPI 180252Z 00000KT 10SM CLR 22/20 A2995 RMK AO2 SLP136 T02170200 51012
KSPI 180152Z 00000KT 10SM CLR 22/20 A2994 RMK AO2 SLP133 T02220200
KSPI 180052Z 31003KT 10SM CLR 26/19 A2992 RMK AO2 SLP128 T02560189
KSPI 172352Z 32005KT 10SM CLR 28/19 A2991 RMK AO2 SLP124 T02830189 10344 20283 53002
KSPI 172252Z 33005KT 10SM CLR 32/18 A2990 RMK AO2 SLP121 T03170183
KSPI 172152Z 34006KT 10SM CLR 33/19 A2990 RMK AO2 SLP119 T03330189
KSPI 172052Z 32007KT 10SM CLR 34/18 A2990 RMK AO2 SLP120 T03390178 56014
KSPI 171952Z 36004KT 10SM CLR 34/18 A2991 RMK AO2 SLP120 T03390183
KSPI 171852Z VRB06KT 10SM CLR 33/19 A2992 RMK AO2 SLP126 T03330189
KSPI 171752Z VRB05KT 10SM CLR 33/19 A2995 RMK AO2 SLP135 T03280189 10333 20183 58010
KSPI 171652Z 32006KT 10SM CLR 32/20 A2996 RMK AO2 SLP140 T03220200
KSPI 171552Z VRB04KT 10SM CLR 30/22 A2997 RMK AO2 SLP144 T03000217
KSPI 171452Z VRB03KT 10SM BKN065 BKN080 26/22 A2998 RMK AO2 SLP146 T02610217 51006
KSPI 171352Z 25003KT 10SM BKN060 BKN075 24/21 A2997 RMK AO2 SLP144 T02390211
KSPI 171252Z 00000KT 10SM BKN065 23/21 A2997 RMK AO2 SLP144 T02280211
KSPI 171152Z 00000KT 10SM CLR 18/18 A2996 RMK AO2 SLP140 T01830183 10222 20183 53003 $
KSPI 171052Z 21003KT 10SM CLR 21/20 A2996 RMK AO2 SLP139 T02060200 $
KSPI 170952Z AUTO 00000KT 10SM CLR 21/20 A2995 RMK AO2 SLP136 T02110200 $